Time;durP1;ratioP1;P1;durP2;ratioP2;P2;SDS_P1;SDS_P2;PMS_P1;PMS_P2;Temp;Humidity;BMP_temperature;BMP_pressure;BME280_temperature;BME280_humidity;BME280_pressure;Samples;Min_cycle;Max_cycle;Signal;HPM_P1;HPM_P2
2022/03/06 00:02:14;;;;;;;26.88;13.15;;;-1.30;99.90;;;;;;6101263;23;20469;-82
2022/03/06 00:04:40;;;;;;;25.58;13.70;;;-1.30;99.90;;;;;;6125795;23;20017;-82
2022/03/06 00:07:05;;;;;;;23.30;13.27;;;-1.30;99.90;;;;;;6101042;23;20327;-82
2022/03/06 00:09:31;;;;;;;25.42;14.13;;;-1.30;99.90;;;;;;6101495;23;20073;-82
2022/03/06 00:11:57;;;;;;;24.35;12.43;;;-1.30;99.90;;;;;;6125560;23;20029;-82
2022/03/06 00:14:23;;;;;;;22.52;12.85;;;-1.40;99.90;;;;;;6101479;23;20017;-82
2022/03/06 00:16:48;;;;;;;21.52;13.05;;;-1.40;99.90;;;;;;6101274;23;20400;-82
2022/03/06 00:19:14;;;;;;;25.50;13.43;;;-1.50;99.90;;;;;;6101391;23;20148;-82
2022/03/06 00:21:40;;;;;;;22.25;12.65;;;-0.90;99.90;;;;;;6101105;23;20021;-82
2022/03/06 00:24:06;;;;;;;24.40;13.30;;;-1.50;99.90;;;;;;6125481;23;20044;-82
2022/03/06 00:26:33;;;;;;;23.33;12.95;;;-1.60;99.90;;;;;;6101189;23;20080;-82
2022/03/06 00:28:59;;;;;;;23.23;14.18;;;-1.60;99.90;;;;;;6076978;23;20021;-82
2022/03/06 00:31:25;;;;;;;27.75;14.40;;;-1.50;99.90;;;;;;6125578;23;20473;-82
2022/03/06 00:33:54;;;;;;;26.02;15.85;;;-1.60;99.90;;;;;;6101027;23;20021;-82
2022/03/06 00:36:20;;;;;;;23.58;13.52;;;-1.60;99.90;;;;;;6097394;23;20025;-82
2022/03/06 00:38:46;;;;;;;27.85;14.95;;;-1.60;99.90;;;;;;6096112;23;20018;-82
2022/03/06 00:41:13;;;;;;;23.50;13.82;;;-1.50;99.90;;;;;;6096283;23;20021;-82
2022/03/06 00:43:39;;;;;;;26.75;15.20;;;-1.60;99.90;;;;;;6072145;23;20327;-81
2022/03/06 00:46:06;;;;;;;31.30;16.27;;;-1.60;99.90;;;;;;6048507;23;20025;-81
2022/03/06 00:48:31;;;;;;;25.00;15.82;;;-1.60;99.90;;;;;;6071720;23;20090;-81
2022/03/06 00:50:57;;;;;;;28.20;16.05;;;-1.60;99.90;;;;;;6024489;23;20474;-82
2022/03/06 00:53:23;;;;;;;28.33;16.30;;;-1.60;99.90;;;;;;6095402;23;20029;-82
2022/03/06 00:55:49;;;;;;;25.48;15.88;;;-1.60;99.90;;;;;;6096114;23;20061;-81
2022/03/06 00:58:15;;;;;;;22.88;14.23;;;-1.60;99.90;;;;;;6071696;23;20394;-81
2022/03/06 01:00:43;;;;;;;27.15;16.70;;;-1.60;99.90;;;;;;6069828;23;20056;-82
2022/03/06 01:03:11;;;;;;;31.30;15.48;;;-1.70;99.90;;;;;;6093723;23;20096;-82
2022/03/06 01:05:37;;;;;;;24.20;15.77;;;-1.70;99.90;;;;;;6070314;23;20018;-82
2022/03/06 01:08:04;;;;;;;28.08;14.65;;;-1.70;99.90;;;;;;6096200;23;20381;-82
2022/03/06 01:10:31;;;;;;;24.27;14.57;;;-1.70;99.90;;;;;;6048095;23;20741;-82
2022/03/06 01:12:57;;;;;;;27.10;15.43;;;-1.70;99.90;;;;;;6072013;23;20025;-82
2022/03/06 01:15:23;;;;;;;25.02;14.90;;;-1.70;99.90;;;;;;6071941;23;20036;-82
2022/03/06 01:17:49;;;;;;;25.02;14.98;;;-1.70;99.90;;;;;;6046850;23;20018;-82
2022/03/06 01:20:14;;;;;;;25.48;15.30;;;-1.70;99.90;;;;;;6071788;23;20029;-82
2022/03/06 01:22:40;;;;;;;27.33;16.05;;;-2.80;99.90;;;;;;6095481;23;20018;-82
2022/03/06 01:25:06;;;;;;;28.13;15.60;;;-1.70;99.90;;;;;;6071971;23;20022;-82
2022/03/06 01:27:32;;;;;;;25.05;15.45;;;-1.70;99.90;;;;;;6071880;23;20018;-82
2022/03/06 01:29:58;;;;;;;24.35;14.80;;;-1.80;99.90;;;;;;6095574;23;20014;-82
2022/03/06 01:32:23;;;;;;;27.05;15.88;;;-1.70;99.90;;;;;;6024195;23;20057;-82
2022/03/06 01:34:49;;;;;;;27.50;15.20;;;-1.80;99.90;;;;;;6095841;23;20021;-82
2022/03/06 01:37:15;;;;;;;25.27;14.88;;;-1.80;99.90;;;;;;6085714;23;20602;-82
2022/03/06 01:39:41;;;;;;;28.02;15.57;;;-1.80;99.90;;;;;;6124634;23;20021;-82
2022/03/06 01:42:07;;;;;;;25.27;15.57;;;-1.80;99.90;;;;;;6076105;23;20025;-82
2022/03/06 01:44:33;;;;;;;26.95;14.93;;;-1.70;99.90;;;;;;6100526;23;20021;-82
2022/03/06 01:46:58;;;;;;;23.30;14.55;;;-1.70;99.90;;;;;;6100663;23;20036;-82
2022/03/06 01:49:24;;;;;;;26.33;15.90;;;-1.70;99.90;;;;;;6124811;23;20025;-82
2022/03/06 01:51:50;;;;;;;24.20;14.82;;;-1.70;99.90;;;;;;6100624;23;20056;-82
2022/03/06 01:54:16;;;;;;;25.60;15.63;;;-0.80;99.90;;;;;;6100463;23;20024;-83
2022/03/06 01:56:42;;;;;;;23.75;15.32;;;-1.70;99.90;;;;;;6076688;23;20028;-82
2022/03/06 01:59:09;;;;;;;23.33;14.10;;;-1.70;99.90;;;;;;6125034;23;20025;-82
2022/03/06 02:01:36;;;;;;;23.92;14.50;;;-1.70;99.90;;;;;;6100064;23;20024;-82
2022/03/06 02:04:01;;;;;;;22.38;13.77;;;-1.70;99.90;;;;;;6124438;23;20028;-82
2022/03/06 02:06:28;;;;;;;25.42;13.73;;;-1.70;99.90;;;;;;6077981;23;20031;-82
2022/03/06 02:08:54;;;;;;;25.77;14.60;;;-1.70;99.90;;;;;;6102362;23;20045;-82
2022/03/06 02:11:22;;;;;;;23.25;13.77;;;-1.70;99.90;;;;;;6102598;23;20021;-82
2022/03/06 02:13:47;;;;;;;27.25;15.07;;;-1.70;99.90;;;;;;6102580;23;20468;-82
2022/03/06 02:16:13;;;;;;;27.58;15.68;;;-1.70;99.90;;;;;;6102291;23;20021;-82
2022/03/06 02:18:39;;;;;;;25.33;14.90;;;-1.70;99.90;;;;;;6078568;23;20713;-82
2022/03/06 02:21:13;;;;;;;27.20;15.15;;;-1.70;99.90;;;;;;6054500;23;20016;-82
2022/03/06 02:23:39;;;;;;;25.20;15.07;;;-1.70;99.90;;;;;;6102371;23;20017;-82
2022/03/06 02:26:06;;;;;;;26.35;13.75;;;-1.80;99.90;;;;;;6102264;23;20021;-82
2022/03/06 02:28:32;;;;;;;23.63;14.65;;;-1.70;99.90;;;;;;6102494;23;20025;-82
2022/03/06 02:30:58;;;;;;;27.90;16.00;;;-1.80;99.90;;;;;;6053860;23;20017;-82
2022/03/06 02:33:24;;;;;;;24.40;15.07;;;-1.80;99.90;;;;;;6102503;23;20072;-82
2022/03/06 02:35:50;;;;;;;27.23;14.77;;;-1.80;99.90;;;;;;6102238;23;20025;-82
2022/03/06 02:38:16;;;;;;;25.48;15.10;;;-1.30;99.90;;;;;;6102084;23;20021;-82
2022/03/06 02:40:43;;;;;;;24.92;14.80;;;-1.80;99.90;;;;;;6126322;23;20484;-82
2022/03/06 02:43:10;;;;;;;26.10;14.60;;;-1.00;99.90;;;;;;6102677;23;20021;-82
2022/03/06 02:45:38;;;;;;;24.55;13.90;;;-1.80;99.90;;;;;;6126427;23;20188;-82
2022/03/06 02:48:04;;;;;;;24.48;13.60;;;-1.90;99.90;;;;;;6101973;23;20021;-82
2022/03/06 02:50:33;;;;;;;26.67;15.63;;;-1.20;99.90;;;;;;6102107;23;20017;-82
2022/03/06 02:53:00;;;;;;;25.90;14.73;;;-1.90;99.90;;;;;;6102299;23;20018;-82
2022/03/06 02:55:26;;;;;;;25.25;14.18;;;-1.90;99.90;;;;;;6101800;23;20017;-82
2022/03/06 02:57:53;;;;;;;23.10;14.38;;;-1.90;99.90;;;;;;6102289;23;20056;-82
2022/03/06 03:00:20;;;;;;;24.98;14.48;;;-1.90;99.90;;;;;;6077548;23;20134;-82
2022/03/06 03:02:47;;;;;;;27.17;15.60;;;-1.90;99.90;;;;;;6102258;23;20021;-82
2022/03/06 03:05:14;;;;;;;25.15;15.32;;;-1.90;99.90;;;;;;6101982;23;20072;-82
2022/03/06 03:07:48;;;;;;;23.65;15.15;;;-1.90;99.90;;;;;;6077748;23;20046;-82
2022/03/06 03:10:15;;;;;;;25.98;15.43;;;-1.90;99.90;;;;;;6101551;23;20125;-83
2022/03/06 03:12:43;;;;;;;28.35;15.13;;;-1.80;99.90;;;;;;6124196;23;20028;-82
2022/03/06 03:15:10;;;;;;;23.23;14.68;;;-1.90;99.90;;;;;;6125928;23;20053;-82
2022/03/06 03:17:37;;;;;;;25.88;15.38;;;-1.90;99.90;;;;;;6077707;23;20083;-82
2022/03/06 03:20:04;;;;;;;26.88;14.60;;;-1.80;99.90;;;;;;6126313;23;20025;-82
2022/03/06 03:22:30;;;;;;;26.67;15.23;;;-1.80;99.90;;;;;;6078138;23;20025;-83
2022/03/06 03:24:56;;;;;;;21.02;13.73;;;-1.80;99.90;;;;;;6101416;23;20409;-82
2022/03/06 03:27:22;;;;;;;27.95;15.52;;;-1.80;99.90;;;;;;6101319;23;20348;-82
2022/03/06 03:29:47;;;;;;;26.33;14.30;;;-1.70;99.90;;;;;;6077771;23;20013;-82
2022/03/06 03:32:13;;;;;;;22.70;13.35;;;-1.70;99.90;;;;;;6101499;23;20029;-82
2022/03/06 03:34:39;;;;;;;22.90;14.10;;;-1.70;99.90;;;;;;6126280;23;20104;-82
2022/03/06 03:37:05;;;;;;;21.77;12.90;;;-1.70;99.90;;;;;;6077292;23;20026;-82
2022/03/06 03:39:31;;;;;;;21.30;12.55;;;-1.70;99.90;;;;;;6101983;23;20018;-82
2022/03/06 03:41:56;;;;;;;20.00;13.27;;;-1.70;99.90;;;;;;6077359;23;20092;-82
2022/03/06 03:44:22;;;;;;;21.63;12.82;;;-1.70;99.90;;;;;;6101306;23;20097;-82
2022/03/06 03:46:48;;;;;;;21.17;13.15;;;-1.70;99.90;;;;;;6077391;23;20021;-82
2022/03/06 03:49:14;;;;;;;20.77;12.48;;;-1.70;99.90;;;;;;6125984;23;20024;-82
2022/03/06 03:51:41;;;;;;;21.63;13.30;;;-1.70;99.90;;;;;;6077630;23;20017;-82
2022/03/06 03:54:06;;;;;;;18.20;11.68;;;-1.70;99.90;;;;;;6101138;23;20032;-82
2022/03/06 03:56:32;;;;;;;21.85;12.88;;;-1.70;99.90;;;;;;6077676;23;20018;-82
2022/03/06 03:58:58;;;;;;;17.02;11.10;;;-1.70;99.90;;;;;;6101297;23;20535;-82
2022/03/06 04:01:24;;;;;;;18.48;11.52;;;-1.60;99.90;;;;;;6125494;23;20022;-82
2022/03/06 04:03:49;;;;;;;18.98;12.23;;;-1.60;99.90;;;;;;6101421;23;20021;-82
2022/03/06 04:06:15;;;;;;;21.55;13.27;;;-1.60;99.90;;;;;;6101358;23;20064;-82
2022/03/06 04:08:41;;;;;;;18.02;12.02;;;-1.50;99.90;;;;;;6101262;23;20149;-82
2022/03/06 04:11:07;;;;;;;21.42;11.85;;;-1.60;99.90;;;;;;6100701;23;20234;-82
2022/03/06 04:13:32;;;;;;;24.17;12.05;;;-1.60;99.90;;;;;;6101610;23;20085;-82
2022/03/06 04:15:58;;;;;;;19.40;11.50;;;-1.60;99.90;;;;;;6101501;23;20087;-82
2022/03/06 04:18:24;;;;;;;18.17;11.73;;;-1.50;99.90;;;;;;6053175;23;20091;-82
2022/03/06 04:20:49;;;;;;;21.35;12.27;;;-1.60;99.90;;;;;;6101062;23;20018;-82
2022/03/06 04:23:15;;;;;;;19.50;11.32;;;-1.60;99.90;;;;;;6101040;23;20044;-82
2022/03/06 04:25:41;;;;;;;16.80;11.40;;;-1.60;99.90;;;;;;6053168;23;20017;-82
2022/03/06 04:28:08;;;;;;;17.85;10.57;;;-1.60;99.90;;;;;;6125169;23;20460;-82
2022/03/06 04:30:34;;;;;;;19.80;11.80;;;-1.60;99.90;;;;;;6124788;23;20020;-82
2022/03/06 04:32:59;;;;;;;20.67;10.55;;;-1.70;99.90;;;;;;6100871;23;20013;-82
2022/03/06 04:35:25;;;;;;;18.65;11.18;;;-1.70;99.90;;;;;;6101138;23;20069;-82
2022/03/06 04:37:51;;;;;;;18.60;10.95;;;-1.70;99.90;;;;;;6076382;23;20025;-82
2022/03/06 04:40:17;;;;;;;17.48;10.93;;;-1.70;99.90;;;;;;6101144;23;20112;-82
2022/03/06 04:42:43;;;;;;;15.40;10.45;;;-1.80;99.90;;;;;;6100651;23;20022;-82
2022/03/06 04:45:09;;;;;;;18.67;10.80;;;-1.80;99.90;;;;;;6077113;23;20013;-82
2022/03/06 04:47:35;;;;;;;18.83;11.73;;;-1.80;99.90;;;;;;6100545;23;20025;-82
2022/03/06 04:50:01;;;;;;;16.83;10.73;;;-1.70;99.90;;;;;;6076862;23;20013;-82
2022/03/06 04:52:27;;;;;;;18.35;11.10;;;-1.90;99.90;;;;;;6100768;23;20457;-82
2022/03/06 04:54:52;;;;;;;17.67;11.85;;;-1.90;99.90;;;;;;6101030;23;20028;-82
2022/03/06 04:57:18;;;;;;;19.08;11.00;;;-2.00;99.90;;;;;;6077064;23;20017;-82
2022/03/06 04:59:44;;;;;;;13.57;9.85;;;-2.00;99.90;;;;;;6077018;23;20017;-82
2022/03/06 05:02:10;;;;;;;19.38;10.30;;;-2.00;99.90;;;;;;6099856;23;20108;-82
2022/03/06 05:04:36;;;;;;;14.90;10.57;;;-2.10;99.90;;;;;;6125232;23;20040;-83
2022/03/06 05:07:02;;;;;;;21.58;10.85;;;-2.10;99.90;;;;;;6124550;23;20049;-81
2022/03/06 05:09:27;;;;;;;16.75;10.23;;;-2.10;99.90;;;;;;6125032;23;20073;-82
2022/03/06 05:11:53;;;;;;;15.35;10.30;;;-2.10;99.90;;;;;;6100832;23;20463;-82
2022/03/06 05:14:19;;;;;;;15.57;10.40;;;-2.10;99.90;;;;;;6076191;23;20021;-82
2022/03/06 05:16:45;;;;;;;17.60;10.23;;;-2.10;99.90;;;;;;6076460;23;20049;-82
2022/03/06 05:19:11;;;;;;;15.00;9.25;;;-2.10;99.90;;;;;;6100475;23;20021;-82
2022/03/06 05:21:37;;;;;;;16.30;10.07;;;-2.20;99.90;;;;;;6100885;23;20064;-82
2022/03/06 05:24:04;;;;;;;14.32;9.38;;;-2.20;99.90;;;;;;6096984;23;20108;-82
2022/03/06 05:26:30;;;;;;;19.98;10.82;;;-2.20;99.90;;;;;;6096940;23;20021;-83
2022/03/06 05:28:55;;;;;;;16.02;9.48;;;-2.20;99.90;;;;;;6098579;23;20013;-82
2022/03/06 05:31:21;;;;;;;14.23;8.90;;;-2.10;99.90;;;;;;6100188;23;20029;-82
2022/03/06 05:33:47;;;;;;;16.02;9.55;;;-2.20;99.90;;;;;;6124455;23;20033;-82
2022/03/06 05:36:12;;;;;;;16.67;9.63;;;-2.20;99.90;;;;;;6100804;23;20017;-82
2022/03/06 05:38:38;;;;;;;11.93;8.40;;;-2.10;99.90;;;;;;6100362;23;20404;-82
2022/03/06 05:41:04;;;;;;;11.63;8.57;;;-2.10;99.90;;;;;;6100052;23;20100;-82
2022/03/06 05:43:30;;;;;;;17.63;8.85;;;-2.10;99.90;;;;;;6100120;23;20022;-82
2022/03/06 05:45:55;;;;;;;13.88;8.10;;;-2.20;99.90;;;;;;6124501;23;20018;-82
2022/03/06 05:48:22;;;;;;;13.68;8.55;;;-1.20;99.90;;;;;;6100284;23;20018;-82
2022/03/06 05:50:48;;;;;;;15.68;8.48;;;-2.20;99.90;;;;;;6124762;23;20115;-83
2022/03/06 05:53:14;;;;;;;15.35;8.48;;;-2.10;99.90;;;;;;6149222;23;20017;-82
2022/03/06 05:55:40;;;;;;;15.80;8.95;;;-2.20;99.90;;;;;;6124571;23;20496;-83
2022/03/06 05:58:06;;;;;;;13.00;7.78;;;-2.70;99.90;;;;;;6124477;23;20028;-82
2022/03/06 06:00:32;;;;;;;13.43;8.05;;;-2.30;99.90;;;;;;6124256;23;20025;-82
2022/03/06 06:02:58;;;;;;;12.43;7.72;;;-2.20;99.90;;;;;;6148750;23;20018;-82
2022/03/06 06:05:24;;;;;;;13.82;8.07;;;-2.20;99.90;;;;;;6149129;23;20014;-83
2022/03/06 06:07:51;;;;;;;12.52;7.90;;;-2.20;99.90;;;;;;6100186;23;20085;-82
2022/03/06 06:10:18;;;;;;;14.23;7.70;;;-2.20;99.90;;;;;;6099987;23;20021;-82
2022/03/06 06:12:44;;;;;;;13.70;7.65;;;-2.20;99.90;;;;;;6099825;23;20028;-82
2022/03/06 06:15:10;;;;;;;13.52;8.07;;;-2.20;99.90;;;;;;6149071;23;20017;-82
2022/03/06 06:17:37;;;;;;;10.80;7.45;;;-2.20;99.90;;;;;;6100409;23;20319;-82
2022/03/06 06:20:05;;;;;;;11.52;7.10;;;-2.10;99.90;;;;;;6100913;23;20112;-82
2022/03/06 06:22:31;;;;;;;14.82;7.90;;;-2.10;99.90;;;;;;6100466;23;20021;-82
2022/03/06 06:25:01;;;;;;;12.98;7.80;;;-2.00;99.90;;;;;;6148816;23;20053;-82
2022/03/06 06:27:27;;;;;;;13.15;7.82;;;-2.00;99.90;;;;;;6100033;23;20102;-82
2022/03/06 06:29:53;;;;;;;10.25;7.07;;;-1.90;99.90;;;;;;6124421;23;20138;-82
2022/03/06 06:32:19;;;;;;;11.00;7.03;;;-1.80;99.90;;;;;;6100387;23;20769;-82
2022/03/06 06:34:45;;;;;;;11.63;7.20;;;-1.80;99.90;;;;;;6148829;23;20021;-82
2022/03/06 06:37:12;;;;;;;10.60;7.32;;;-1.70;99.90;;;;;;6149001;23;20084;-82
2022/03/06 06:39:38;;;;;;;10.13;6.82;;;-1.60;99.90;;;;;;6100119;23;20356;-82
2022/03/06 06:42:05;;;;;;;11.23;6.82;;;-1.50;99.90;;;;;;6100262;23;20017;-82
2022/03/06 06:44:31;;;;;;;11.35;6.60;;;-1.50;99.90;;;;;;6124300;23;20049;-82
2022/03/06 06:46:57;;;;;;;8.30;6.20;;;-1.40;99.90;;;;;;6124616;23;20457;-82
2022/03/06 06:49:23;;;;;;;9.10;7.05;;;-1.40;99.90;;;;;;6148458;23;20014;-82
2022/03/06 06:51:49;;;;;;;12.63;6.20;;;-1.30;99.90;;;;;;6100684;23;20021;-81
2022/03/06 06:54:15;;;;;;;10.95;6.10;;;-1.30;99.90;;;;;;6101725;23;20506;-81
2022/03/06 06:56:42;;;;;;;10.00;5.97;;;-1.20;99.90;;;;;;6151079;23;20024;-82
2022/03/06 06:59:08;;;;;;;9.10;5.45;;;-1.20;99.90;;;;;;6150674;23;20025;-81
2022/03/06 07:01:34;;;;;;;8.90;5.80;;;-1.10;99.90;;;;;;6150627;23;20465;-82
2022/03/06 07:04:00;;;;;;;9.15;5.85;;;-1.00;99.90;;;;;;6150604;23;20021;-82
2022/03/06 07:06:26;;;;;;;7.55;5.50;;;-0.90;99.90;;;;;;6150919;23;20014;-82
2022/03/06 07:08:52;;;;;;;9.02;5.55;;;-0.90;99.90;;;;;;6150350;23;20093;-82
2022/03/06 07:11:17;;;;;;;11.35;5.40;;;-0.80;99.90;;;;;;6151171;23;20060;-82
2022/03/06 07:13:43;;;;;;;11.40;5.97;;;0.30;99.90;;;;;;6101854;23;20145;-82
2022/03/06 07:16:09;;;;;;;13.05;7.38;;;-0.70;99.90;;;;;;6101368;23;20596;-82
2022/03/06 07:18:34;;;;;;;19.73;8.93;;;-0.60;99.90;;;;;;6101942;23;20021;-82
2022/03/06 07:21:02;;;;;;;9.10;5.90;;;-0.60;99.90;;;;;;6126117;23;20018;-82
2022/03/06 07:23:29;;;;;;;7.63;5.65;;;-0.50;99.90;;;;;;6102068;23;20014;-82
2022/03/06 07:25:56;;;;;;;10.23;6.05;;;-0.50;99.90;;;;;;6101534;23;20352;-82
2022/03/06 07:28:22;;;;;;;7.80;5.00;;;0.20;99.90;;;;;;6101430;23;20056;-82
2022/03/06 07:30:48;;;;;;;8.93;5.43;;;-0.30;99.90;;;;;;6150111;23;20022;-82
2022/03/06 07:33:14;;;;;;;7.40;5.50;;;-0.30;99.90;;;;;;6126090;23;20024;-83
2022/03/06 07:35:40;;;;;;;7.93;5.75;;;0.20;99.90;;;;;;6101256;23;20349;-82
2022/03/06 07:38:06;;;;;;;8.38;5.40;;;-0.20;99.90;;;;;;6096241;23;20021;-82
2022/03/06 07:40:32;;;;;;;7.10;4.82;;;-0.20;99.90;;;;;;6149039;23;20496;-83
2022/03/06 07:42:58;;;;;;;8.65;5.43;;;-0.10;99.90;;;;;;6149881;23;20057;-82
2022/03/06 07:45:24;;;;;;;8.27;5.22;;;-0.10;99.90;;;;;;6101332;23;20025;-83
2022/03/06 07:47:49;;;;;;;7.93;5.30;;;0.00;99.90;;;;;;6101582;23;20040;-82
2022/03/06 07:50:16;;;;;;;7.13;4.88;;;0.00;99.90;;;;;;6101416;23;20377;-83
2022/03/06 07:52:42;;;;;;;7.07;4.90;;;0.10;99.90;;;;;;6126312;23;20052;-82
2022/03/06 07:55:08;;;;;;;7.85;4.78;;;0.20;99.90;;;;;;6125697;23;20025;-82
2022/03/06 07:57:34;;;;;;;7.90;4.97;;;0.30;99.90;;;;;;6150429;23;20024;-83
2022/03/06 07:59:59;;;;;;;7.53;5.20;;;0.50;99.90;;;;;;6100967;23;20057;-83
2022/03/06 08:02:25;;;;;;;9.10;5.70;;;1.00;99.90;;;;;;6150145;23;20029;-83
2022/03/06 08:04:52;;;;;;;7.53;4.97;;;1.30;99.90;;;;;;6150562;23;20021;-83
2022/03/06 08:07:18;;;;;;;9.77;5.43;;;1.70;99.90;;;;;;6101003;23;20018;-83
2022/03/06 08:09:44;;;;;;;8.77;4.43;;;2.30;99.90;;;;;;6077303;23;20472;-83
2022/03/06 08:12:09;;;;;;;6.15;4.38;;;2.30;99.90;;;;;;6150151;23;20017;-83
2022/03/06 08:14:36;;;;;;;5.47;4.28;;;3.00;99.90;;;;;;6100930;23;20069;-83
2022/03/06 08:17:02;;;;;;;6.93;4.78;;;2.40;99.90;;;;;;6077331;23;20107;-83
2022/03/06 08:19:27;;;;;;;7.07;4.57;;;2.20;99.90;;;;;;6101246;23;20029;-83
2022/03/06 08:21:53;;;;;;;6.45;4.45;;;2.30;99.90;;;;;;6101238;23;20021;-83
2022/03/06 08:24:19;;;;;;;7.72;4.60;;;2.60;99.90;;;;;;6100821;23;20084;-83
2022/03/06 08:26:45;;;;;;;5.93;4.68;;;2.60;99.90;;;;;;6101254;23;20017;-83
2022/03/06 08:29:11;;;;;;;7.70;4.25;;;2.50;99.90;;;;;;6100961;23;20025;-83
2022/03/06 08:31:36;;;;;;;6.55;4.03;;;2.70;99.90;;;;;;6100524;23;20211;-83
2022/03/06 08:34:03;;;;;;;6.55;4.43;;;3.10;99.90;;;;;;6150717;23;20025;-83
2022/03/06 08:36:29;;;;;;;5.60;4.40;;;3.50;99.90;;;;;;6150860;23;20025;-83
2022/03/06 08:38:54;;;;;;;7.45;4.22;;;3.80;99.90;;;;;;6150054;23;20036;-83
2022/03/06 08:41:20;;;;;;;5.47;3.67;;;3.60;99.90;;;;;;6101536;23;20029;-83
2022/03/06 08:43:46;;;;;;;6.30;4.00;;;3.70;99.90;;;;;;6150745;23;20025;-83
2022/03/06 08:46:11;;;;;;;6.82;3.83;;;3.80;99.90;;;;;;6100962;23;20052;-82
2022/03/06 08:48:37;;;;;;;5.40;3.83;;;3.70;99.90;;;;;;6076855;23;20060;-82
2022/03/06 08:51:04;;;;;;;4.65;3.35;;;4.00;99.90;;;;;;6100657;23;20100;-84
2022/03/06 08:53:31;;;;;;;6.30;3.55;;;4.30;99.90;;;;;;6150066;23;20017;-84
2022/03/06 08:55:57;;;;;;;4.55;3.53;;;4.60;99.90;;;;;;6150024;23;20166;-82
2022/03/06 08:58:23;;;;;;;4.25;3.25;;;5.10;99.90;;;;;;6149251;23;20048;-83
2022/03/06 09:00:48;;;;;;;4.70;3.58;;;5.50;99.90;;;;;;6148535;23;20034;-84
2022/03/06 09:03:14;;;;;;;5.03;3.47;;;6.10;99.90;;;;;;6149271;23;20017;-84
2022/03/06 09:05:40;;;;;;;6.00;3.33;;;6.90;99.90;;;;;;6149739;23;20045;-84
2022/03/06 09:08:10;;;;;;;5.82;3.30;;;7.40;99.90;;;;;;6149803;23;20014;-84
2022/03/06 09:10:37;;;;;;;6.15;3.65;;;8.00;99.80;;;;;;6100521;23;20132;-83
2022/03/06 09:13:04;;;;;;;4.97;3.70;;;8.90;98.60;;;;;;6149503;23;20017;-83
2022/03/06 09:15:30;;;;;;;4.72;3.40;;;8.90;96.20;;;;;;6149301;23;20021;-82
2022/03/06 09:17:56;;;;;;;5.18;3.40;;;9.30;95.40;;;;;;6124806;23;20364;-81
2022/03/06 09:20:23;;;;;;;4.72;3.58;;;9.60;95.10;;;;;;6124766;23;20021;-84
2022/03/06 09:22:49;;;;;;;4.78;3.50;;;9.70;93.30;;;;;;6100355;23;20017;-83
2022/03/06 09:25:15;;;;;;;5.93;3.85;;;10.20;92.90;;;;;;6100700;23;20021;-80
2022/03/06 09:27:41;;;;;;;6.15;3.45;;;10.30;90.80;;;;;;6100489;23;20017;-80
2022/03/06 09:30:07;;;;;;;3.83;3.35;;;10.80;90.80;;;;;;6124694;23;20512;-81
2022/03/06 09:32:34;;;;;;;4.60;3.60;;;11.10;90.00;;;;;;6149671;23;20155;-79
2022/03/06 09:35:00;;;;;;;5.43;3.95;;;11.10;85.60;;;;;;6100700;23;20464;-81
2022/03/06 09:37:25;;;;;;;4.38;3.22;;;11.40;85.80;;;;;;6076883;23;20025;-83
2022/03/06 09:39:51;;;;;;;5.60;3.53;;;11.30;81.80;;;;;;6125346;23;20101;-83
2022/03/06 09:42:18;;;;;;;3.92;3.35;;;11.20;82.10;;;;;;6125123;23;20357;-83
2022/03/06 09:44:46;;;;;;;4.95;3.78;;;11.30;79.40;;;;;;6100905;23;20049;-83
2022/03/06 09:47:13;;;;;;;6.40;3.50;;;11.10;74.80;;;;;;6101240;23;20056;-84
2022/03/06 09:49:40;;;;;;;5.53;3.80;;;11.30;78.40;;;;;;6101544;23;20039;-83
2022/03/06 09:52:06;;;;;;;5.35;3.60;;;11.50;78.00;;;;;;6123036;23;20021;-84
2022/03/06 09:54:32;;;;;;;5.15;3.60;;;11.90;75.90;;;;;;6101310;23;20025;-84
2022/03/06 09:56:57;;;;;;;5.78;3.83;;;11.70;74.50;;;;;;6100094;23;20076;-83
2022/03/06 09:59:24;;;;;;;4.45;3.72;;;12.00;74.50;;;;;;6100902;23;20018;-83
2022/03/06 10:01:49;;;;;;;4.15;3.30;;;12.50;72.80;;;;;;6098951;23;20025;-83
2022/03/06 10:04:25;;;;;;;5.78;3.85;;;12.40;71.20;;;;;;6099090;23;20084;-81
2022/03/06 10:07:00;;;;;;;4.95;3.50;;;11.90;67.60;;;;;;6124716;23;20471;-81
2022/03/06 10:09:26;;;;;;;3.88;3.38;;;12.30;68.50;;;;;;6100922;23;20021;-82
2022/03/06 10:11:54;;;;;;;5.43;3.17;;;12.00;68.70;;;;;;6101261;23;20405;-81
2022/03/06 10:14:37;;;;;;;4.95;3.25;;;11.70;69.50;;;;;;6150180;23;20009;-81
2022/03/06 10:17:13;;;;;;;3.42;3.13;;;12.00;67.40;;;;;;6101261;23;20009;-80
2022/03/06 10:20:01;;;;;;;4.47;3.70;;;12.40;66.90;;;;;;6149848;23;20024;-81
2022/03/06 10:22:29;;;;;;;3.83;3.42;;;12.70;65.00;;;;;;6149891;23;20022;-81
2022/03/06 10:24:59;;;;;;;3.88;2.90;;;12.20;64.30;;;;;;6100950;23;20036;-80
2022/03/06 10:27:54;;;;;;;4.35;3.20;;;11.80;63.70;;;;;;6126754;23;20076;-80
2022/03/06 10:30:30;;;;;;;5.55;3.35;;;12.00;63.60;;;;;;6102994;23;20014;-81
2022/03/06 10:33:01;;;;;;;4.68;3.40;;;11.90;64.90;;;;;;6103132;23;20457;-81
2022/03/06 10:35:45;;;;;;;6.43;3.40;;;12.10;66.00;;;;;;6103533;23;20013;-81
2022/03/06 10:38:29;;;;;;;3.80;3.38;;;12.50;63.60;;;;;;6103177;23;20064;-81
2022/03/06 10:41:25;;;;;;;7.07;3.67;;;12.60;63.80;;;;;;6152466;23;20089;-81
2022/03/06 10:43:52;;;;;;;7.38;3.75;;;11.90;63.50;;;;;;6099088;23;20013;-81
2022/03/06 10:46:19;;;;;;;4.70;3.65;;;11.30;63.80;;;;;;6103222;23;20014;-82
2022/03/06 10:49:01;;;;;;;7.03;3.63;;;11.40;65.20;;;;;;6102979;23;20025;-83
2022/03/06 10:51:28;;;;;;;5.18;3.20;;;11.60;63.70;;;;;;6102789;23;20108;-83
2022/03/06 10:53:58;;;;;;;4.93;3.28;;;11.30;63.30;;;;;;6103278;23;20034;-83
2022/03/06 10:56:25;;;;;;;4.30;2.95;;;11.60;63.10;;;;;;6103537;23;20017;-83
2022/03/06 10:58:52;;;;;;;3.42;2.78;;;11.50;62.60;;;;;;6103569;23;20518;-83
2022/03/06 11:01:18;;;;;;;5.60;2.92;;;11.40;64.10;;;;;;6127508;23;20025;-83
2022/03/06 11:03:45;;;;;;;5.13;3.17;;;11.20;63.50;;;;;;6103028;23;20693;-83
2022/03/06 11:06:11;;;;;;;3.17;2.75;;;10.40;63.30;;;;;;6103147;23;20013;-82
2022/03/06 11:08:39;;;;;;;5.82;3.10;;;10.10;64.40;;;;;;6103132;23;20021;-83
2022/03/06 11:11:07;;;;;;;5.40;3.17;;;10.50;66.20;;;;;;6103241;23;20017;-82
2022/03/06 11:13:33;;;;;;;3.90;2.97;;;10.90;65.10;;;;;;6151993;23;20360;-82
2022/03/06 11:15:59;;;;;;;4.05;2.95;;;11.10;64.70;;;;;;6103521;23;20014;-82
2022/03/06 11:18:26;;;;;;;4.68;2.95;;;11.00;64.00;;;;;;6103576;23;20073;-83
2022/03/06 11:20:58;;;;;;;3.88;2.45;;;11.00;63.80;;;;;;6153284;23;20013;-82
2022/03/06 11:23:31;;;;;;;4.00;2.70;;;10.80;62.10;;;;;;6127770;23;20014;-83
2022/03/06 11:26:11;;;;;;;7.00;2.72;;;10.80;63.60;;;;;;6152353;23;20018;-83
2022/03/06 11:28:42;;;;;;;3.95;2.88;;;11.20;63.10;;;;;;6103809;23;20024;-83
2022/03/06 11:31:08;;;;;;;5.80;3.28;;;11.10;63.90;;;;;;6127105;23;20157;-82
2022/03/06 11:33:34;;;;;;;4.93;2.83;;;10.90;63.20;;;;;;6103194;23;20069;-84
2022/03/06 11:36:23;;;;;;;4.72;2.92;;;10.30;62.90;;;;;;6103048;23;20133;-83
2022/03/06 11:38:51;;;;;;;3.35;2.80;;;10.30;63.00;;;;;;6151723;23;20025;-84
2022/03/06 11:41:18;;;;;;;4.68;2.78;;;9.90;64.70;;;;;;6079317;23;20027;-83
2022/03/06 11:43:48;;;;;;;4.07;2.95;;;9.60;64.90;;;;;;6102211;23;20013;-83
2022/03/06 11:46:25;;;;;;;4.50;3.08;;;9.40;66.20;;;;;;6126708;23;20016;-83
2022/03/06 11:48:51;;;;;;;3.58;2.70;;;9.00;67.10;;;;;;6102407;23;20085;-83
2022/03/06 11:51:22;;;;;;;3.60;2.90;;;9.10;66.40;;;;;;6102394;23;20099;-83
2022/03/06 11:53:57;;;;;;;3.38;2.85;;;8.80;67.20;;;;;;6102424;23;20068;-83
2022/03/06 11:56:34;;;;;;;6.88;3.03;;;8.80;67.20;;;;;;6102647;23;20021;-83
2022/03/06 11:59:22;;;;;;;4.53;3.20;;;8.80;67.90;;;;;;6126553;23;20464;-83
2022/03/06 12:02:07;;;;;;;3.67;2.58;;;8.80;68.40;;;;;;6126221;23;20025;-83
2022/03/06 12:04:37;;;;;;;3.35;2.70;;;8.60;68.20;;;;;;6126514;23;20021;-83
2022/03/06 12:07:10;;;;;;;4.13;2.88;;;8.50;68.70;;;;;;6126390;23;20013;-84
2022/03/06 12:09:46;;;;;;;5.10;3.00;;;8.20;71.00;;;;;;6078036;23;20045;-83
2022/03/06 12:12:17;;;;;;;5.15;3.15;;;8.30;70.30;;;;;;6126164;23;20386;-83
2022/03/06 12:14:53;;;;;;;4.70;3.08;;;8.20;70.60;;;;;;6151146;23;20080;-83
2022/03/06 12:17:30;;;;;;;3.58;2.70;;;8.30;70.40;;;;;;6101966;23;20048;-84
2022/03/06 12:19:55;;;;;;;5.10;3.08;;;8.20;70.90;;;;;;6151170;23;20482;-83
2022/03/06 12:22:34;;;;;;;3.80;2.90;;;8.50;70.10;;;;;;6102048;23;20033;-85
2022/03/06 12:25:06;;;;;;;5.30;3.45;;;8.50;70.30;;;;;;6151226;23;20109;-83
2022/03/06 12:27:33;;;;;;;3.85;3.05;;;8.60;71.30;;;;;;6151637;23;20036;-84
2022/03/06 12:30:01;;;;;;;6.47;3.50;;;8.40;69.30;;;;;;6101621;23;20017;-83
2022/03/06 12:32:33;;;;;;;6.75;3.30;;;8.60;70.10;;;;;;6101815;23;20025;-84
2022/03/06 12:35:14;;;;;;;4.40;3.40;;;8.60;70.70;;;;;;6101353;23;20025;-83
2022/03/06 12:37:59;;;;;;;8.38;3.80;;;8.50;70.80;;;;;;6101521;23;20169;-83
2022/03/06 12:40:27;;;;;;;6.60;3.17;;;8.70;70.50;;;;;;6126113;23;20028;-83